createdAt,value
2019-05-03T00:00:59.320Z,83.10
2019-05-03T00:03:28.704Z,82.10
2019-05-03T00:06:02.283Z,81.20
2019-05-03T00:08:33.348Z,81.10
2019-05-03T00:11:02.775Z,81.70
2019-05-03T00:13:32.522Z,83.30
2019-05-03T00:16:14.226Z,83.40
2019-05-03T00:18:43.614Z,82.50
2019-05-03T00:21:12.970Z,82.10
2019-05-03T00:23:42.366Z,82.00
2019-05-03T00:26:12.084Z,82.00
2019-05-03T00:28:42.620Z,81.50
2019-05-03T00:31:12.569Z,80.50
2019-05-03T00:33:44.010Z,80.80
2019-05-03T00:36:22.403Z,81.00
2019-05-03T00:38:54.718Z,81.90
2019-05-03T00:41:24.085Z,82.30
2019-05-03T00:43:53.520Z,82.70
2019-05-03T00:46:22.994Z,83.00
2019-05-03T00:48:52.581Z,83.10
2019-05-03T00:51:22.518Z,82.80
2019-05-03T00:53:53.165Z,82.90
2019-05-03T00:56:22.796Z,82.80
2019-05-03T00:58:58.614Z,82.30
2019-05-03T01:01:28.113Z,82.70
2019-05-03T01:03:57.468Z,82.50
2019-05-03T01:06:26.926Z,82.70
2019-05-03T01:08:56.424Z,83.00
2019-05-03T01:11:25.806Z,83.30
2019-05-03T01:13:55.163Z,83.60
2019-05-03T01:16:25.525Z,84.00
2019-05-03T01:18:54.878Z,84.10
2019-05-03T01:21:24.226Z,84.70
2019-05-03T01:23:53.698Z,85.40
2019-05-03T01:26:23.118Z,86.60
2019-05-03T01:28:52.909Z,87.10
2019-05-03T01:31:22.964Z,87.50
2019-05-03T01:33:52.341Z,88.20
2019-05-03T01:36:22.769Z,88.40
2019-05-03T01:38:53.120Z,89.30
2019-05-03T01:41:23.495Z,89.70
2019-05-03T01:43:52.905Z,89.90
2019-05-03T01:46:22.918Z,90.10
2019-05-03T01:49:12.283Z,90.30
2019-05-03T01:52:03.798Z,90.10
2019-05-03T01:54:33.209Z,90.20
2019-05-03T01:57:02.669Z,90.40
2019-05-03T01:59:32.169Z,90.60
2019-05-03T02:02:20.724Z,90.60
2019-05-03T02:04:55.941Z,90.70
2019-05-03T02:07:25.302Z,90.60
2019-05-03T02:09:54.662Z,90.70
2019-05-03T02:12:24.147Z,90.80
2019-05-03T02:14:53.536Z,91.00
2019-05-03T02:17:22.930Z,91.00
2019-05-03T02:19:52.714Z,91.00
2019-05-03T02:22:22.580Z,91.40
2019-05-03T02:24:52.619Z,91.50
2019-05-03T02:27:22.344Z,91.40
2019-05-03T02:29:52.398Z,91.60
2019-05-03T02:32:23.220Z,91.70
2019-05-03T02:34:53.638Z,91.70
2019-05-03T02:37:23.203Z,91.70
2019-05-03T02:39:57.495Z,91.60
2019-05-03T02:42:26.870Z,91.50
2019-05-03T02:44:56.678Z,91.40
2019-05-03T02:47:50.957Z,91.40
2019-05-03T02:50:20.944Z,91.20
2019-05-03T02:52:50.336Z,91.20
2019-05-03T02:55:19.898Z,91.10
2019-05-03T02:57:49.298Z,91.20
2019-05-03T03:00:21.967Z,91.10
2019-05-03T03:02:51.527Z,91.00
2019-05-03T03:05:22.179Z,91.00
2019-05-03T03:07:55.927Z,91.10
2019-05-03T03:10:26.504Z,91.20
2019-05-03T03:13:00.125Z,91.30
2019-05-03T03:15:32.290Z,91.40
2019-05-03T03:18:02.559Z,91.50
2019-05-03T03:20:35.707Z,91.40
2019-05-03T03:23:06.828Z,91.30
2019-05-03T03:25:39.411Z,91.30
2019-05-03T03:28:11.361Z,91.60
2019-05-03T03:31:10.690Z,91.50
2019-05-03T03:33:40.592Z,91.60
2019-05-03T03:36:38.047Z,91.50
2019-05-03T03:38:41.175Z,91.50
2019-05-03T03:41:12.827Z,91.50
2019-05-03T03:43:46.275Z,91.40
2019-05-03T03:46:16.656Z,91.30
2019-05-03T03:48:47.507Z,91.20
2019-05-03T03:51:19.853Z,91.20
2019-05-03T03:53:52.233Z,91.10
2019-05-03T03:56:25.430Z,91.20
2019-05-03T03:58:55.566Z,91.20
2019-05-03T04:01:26.663Z,91.20
2019-05-03T04:03:56.527Z,91.30
2019-05-03T04:06:40.842Z,91.30
2019-05-03T04:09:10.489Z,91.20
2019-05-03T04:11:39.926Z,91.20
2019-05-03T04:14:12.791Z,91.30
2019-05-03T04:16:51.537Z,91.20
2019-05-03T04:19:25.468Z,91.20
2019-05-03T04:21:56.178Z,91.20
2019-05-03T04:24:26.841Z,91.10
2019-05-03T04:27:18.514Z,91.10
2019-05-03T04:29:38.594Z,91.10
2019-05-03T04:32:08.796Z,91.10
2019-05-03T04:34:38.170Z,91.20
2019-05-03T04:37:07.646Z,91.40
2019-05-03T04:39:37.059Z,91.60
2019-05-03T04:42:07.064Z,91.90
2019-05-03T04:44:36.642Z,92.30
2019-05-03T04:47:07.081Z,92.50
2019-05-03T04:49:36.713Z,92.70
2019-05-03T04:52:06.268Z,92.80
2019-05-03T04:55:00.599Z,92.90
2019-05-03T04:57:40.095Z,93.40
2019-05-03T05:00:01.194Z,93.20
2019-05-03T05:02:30.662Z,93.20
2019-05-03T05:05:00.100Z,93.20
2019-05-03T05:07:29.555Z,93.20
2019-05-03T05:09:58.936Z,93.10
2019-05-03T05:12:28.415Z,93.00
2019-05-03T05:14:57.893Z,92.90
2019-05-03T05:17:52.460Z,92.90
2019-05-03T05:20:45.413Z,92.80
2019-05-03T05:23:14.902Z,92.80
2019-05-03T05:25:50.339Z,92.70
2019-05-03T05:28:38.739Z,92.60
2019-05-03T05:31:08.129Z,92.60
2019-05-03T05:33:37.573Z,92.60
2019-05-03T05:36:07.021Z,92.60
2019-05-03T05:38:36.360Z,92.70
2019-05-03T05:41:05.716Z,92.70
2019-05-03T05:43:35.668Z,92.70
2019-05-03T05:46:05.999Z,92.50
2019-05-03T05:48:45.214Z,92.40
2019-05-03T05:51:16.135Z,92.40
2019-05-03T05:53:45.964Z,92.50
2019-05-03T05:56:25.081Z,92.60
2019-05-03T05:59:02.073Z,92.60
2019-05-03T06:01:35.483Z,92.60
2019-05-03T06:04:05.446Z,92.60
2019-05-03T06:06:42.432Z,92.60
2019-05-03T06:09:37.451Z,92.70
2019-05-03T06:12:14.852Z,92.60
2019-05-03T06:14:48.885Z,92.40
2019-05-03T06:17:26.152Z,92.10
2019-05-03T06:20:01.232Z,91.10
2019-05-03T06:22:41.351Z,89.40
2019-05-03T06:25:35.349Z,88.40
2019-05-03T06:28:17.733Z,88.40
2019-05-03T06:31:06.716Z,88.00
2019-05-03T06:33:36.189Z,88.70
2019-05-03T06:36:05.648Z,89.20
2019-05-03T06:38:35.098Z,89.60
2019-05-03T06:41:04.784Z,90.50
2019-05-03T06:43:34.833Z,90.40
2019-05-03T06:46:05.354Z,90.70
2019-05-03T06:48:35.328Z,91.00
2019-05-03T06:51:09.283Z,90.50
2019-05-03T06:53:36.153Z,90.50
2019-05-03T06:56:05.553Z,90.50
2019-05-03T06:58:36.423Z,90.60
2019-05-03T07:01:20.492Z,91.10
2019-05-03T07:04:06.094Z,90.90
2019-05-03T07:06:45.853Z,90.90
2019-05-03T07:09:49.121Z,90.80
2019-05-03T07:12:18.509Z,91.30
2019-05-03T07:14:50.399Z,91.30
2019-05-03T07:17:18.970Z,91.40
2019-05-03T07:19:48.397Z,91.70
2019-05-03T07:22:17.857Z,91.80
2019-05-03T07:24:47.220Z,91.90
2019-05-03T07:27:16.566Z,91.80
2019-05-03T07:29:46.033Z,92.10
2019-05-03T07:32:15.658Z,92.00
2019-05-03T07:34:45.364Z,92.10
2019-05-03T07:37:15.144Z,92.10
2019-05-03T07:39:45.290Z,92.60
2019-05-03T07:42:15.665Z,92.70
2019-05-03T07:44:45.429Z,92.70
2019-05-03T07:47:14.975Z,92.20
2019-05-03T07:49:44.785Z,92.40
2019-05-03T07:52:14.871Z,92.30
2019-05-03T07:54:45.130Z,92.80
2019-05-03T07:57:42.618Z,92.70
2019-05-03T08:00:14.943Z,92.70
2019-05-03T08:02:44.764Z,91.60
2019-05-03T08:05:15.558Z,91.90
2019-05-03T08:07:46.282Z,91.00
2019-05-03T08:10:16.623Z,91.40
2019-05-03T08:12:45.953Z,92.00
2019-05-03T08:15:15.783Z,92.00
2019-05-03T08:17:45.422Z,91.60
2019-05-03T08:20:14.940Z,91.40
2019-05-03T08:22:44.782Z,91.00
2019-05-03T08:25:14.715Z,90.90
2019-05-03T08:27:44.603Z,90.40
2019-05-03T08:30:17.585Z,90.90
2019-05-03T08:33:01.067Z,91.60
2019-05-03T08:35:35.728Z,91.20
2019-05-03T08:38:05.239Z,91.60
2019-05-03T08:40:40.685Z,91.50
2019-05-03T08:43:09.998Z,91.00
2019-05-03T08:45:39.379Z,91.40
2019-05-03T08:48:08.857Z,91.20
2019-05-03T08:50:38.228Z,90.70
2019-05-03T08:53:07.550Z,90.50
2019-05-03T08:55:36.946Z,90.80
2019-05-03T08:58:06.274Z,91.30
2019-05-03T09:00:38.193Z,91.30
2019-05-03T09:03:07.653Z,91.40
2019-05-03T09:05:37.018Z,91.40
2019-05-03T09:08:06.367Z,91.50
2019-05-03T09:10:41.792Z,92.00
2019-05-03T09:13:14.780Z,92.20
2019-05-03T09:15:44.644Z,92.40
2019-05-03T09:18:17.345Z,92.40
2019-05-03T09:20:45.369Z,93.00
2019-05-03T09:23:14.999Z,92.40
2019-05-03T09:25:45.851Z,92.10
2019-05-03T09:28:15.527Z,92.00
2019-05-03T09:30:44.975Z,91.70
2019-05-03T09:33:15.391Z,91.90
2019-05-03T09:35:45.631Z,91.40
2019-05-03T09:38:15.499Z,91.40
2019-05-03T09:40:45.513Z,91.40
2019-05-03T09:43:15.224Z,91.30
2019-05-03T09:45:45.733Z,91.10
2019-05-03T09:48:15.550Z,91.30
2019-05-03T09:50:45.283Z,91.20
2019-05-03T09:53:16.926Z,91.30
2019-05-03T09:55:46.301Z,91.40
2019-05-03T09:58:15.780Z,91.50
2019-05-03T10:00:45.965Z,91.50
2019-05-03T10:03:15.323Z,91.80
2019-05-03T10:05:45.812Z,91.80
2019-05-03T10:08:15.884Z,87.50
2019-05-03T10:11:05.269Z,85.40
2019-05-03T10:13:35.435Z,83.70
2019-05-03T10:16:06.227Z,85.10
2019-05-03T10:18:36.651Z,86.30
2019-05-03T10:21:06.273Z,86.50
2019-05-03T10:23:39.506Z,87.70
2019-05-03T10:26:10.009Z,87.70
2019-05-03T10:28:39.421Z,87.90
2019-05-03T10:31:08.777Z,87.80
2019-05-03T10:33:45.016Z,87.90
2019-05-03T10:36:15.467Z,87.80
2019-05-03T10:38:46.012Z,87.20
2019-05-03T10:41:15.968Z,85.80
2019-05-03T10:43:45.486Z,86.20
2019-05-03T10:46:15.974Z,82.90
2019-05-03T10:48:45.626Z,82.80
2019-05-03T10:51:15.908Z,84.30
2019-05-03T10:53:48.614Z,85.10
2019-05-03T10:56:23.188Z,86.20
2019-05-03T10:59:01.864Z,86.40
2019-05-03T11:01:48.883Z,87.00
2019-05-03T11:04:18.368Z,87.70
2019-05-03T11:06:47.780Z,87.30
2019-05-03T11:09:17.167Z,86.60
2019-05-03T11:11:46.629Z,85.60
2019-05-03T11:14:16.039Z,85.00
2019-05-03T11:16:45.963Z,85.00
2019-05-03T11:19:15.969Z,84.60
2019-05-03T11:21:45.682Z,86.10
2019-05-03T11:24:15.201Z,87.00
2019-05-03T11:26:46.219Z,86.30
2019-05-03T11:29:15.987Z,85.30
2019-05-03T11:32:14.886Z,84.00
2019-05-03T11:35:01.881Z,84.70
2019-05-03T11:37:45.471Z,83.90
2019-05-03T11:40:15.827Z,84.50
2019-05-03T11:42:46.135Z,84.40
2019-05-03T11:45:15.954Z,83.70
2019-05-03T11:47:45.886Z,83.50
2019-05-03T11:50:15.428Z,83.40
2019-05-03T11:52:47.093Z,83.20
2019-05-03T11:55:16.133Z,83.00
2019-05-03T11:57:45.857Z,79.70
2019-05-03T12:00:22.182Z,80.40
2019-05-03T12:03:25.347Z,81.20
2019-05-03T12:05:56.553Z,80.60
2019-05-03T12:08:25.919Z,81.00
2019-05-03T12:11:01.090Z,81.00
2019-05-03T12:13:29.844Z,81.10
2019-05-03T12:16:00.587Z,81.50
2019-05-03T12:18:30.253Z,81.70
2019-05-03T12:21:01.003Z,81.70
2019-05-03T12:23:31.900Z,81.20
2019-05-03T12:26:04.195Z,81.20
2019-05-03T12:28:35.089Z,80.30
2019-05-03T12:31:04.917Z,80.90
2019-05-03T12:33:35.436Z,81.20
2019-05-03T12:36:05.953Z,83.60
2019-05-03T12:38:35.750Z,84.40
2019-05-03T12:41:05.756Z,84.40
2019-05-03T12:43:35.319Z,82.40
2019-05-03T12:46:05.201Z,83.50
2019-05-03T12:48:35.443Z,82.60
2019-05-03T12:51:06.810Z,81.80
2019-05-03T12:53:36.748Z,81.10
2019-05-03T12:56:11.598Z,81.10
2019-05-03T12:58:55.335Z,80.10
2019-05-03T13:01:42.389Z,80.60
2019-05-03T13:04:15.353Z,79.20
2019-05-03T13:06:49.920Z,79.70
2019-05-03T13:09:19.399Z,79.70
2019-05-03T13:11:55.292Z,79.90
2019-05-03T13:14:22.199Z,79.60
2019-05-03T13:16:51.632Z,78.60
2019-05-03T13:19:21.083Z,78.40
2019-05-03T13:21:50.475Z,79.40
2019-05-03T13:24:23.085Z,81.40
2019-05-03T13:26:51.076Z,82.20
2019-05-03T13:29:20.513Z,81.80
2019-05-03T13:31:59.238Z,82.50
2019-05-03T13:34:21.009Z,81.20
2019-05-03T13:36:50.387Z,81.00
2019-05-03T13:39:19.762Z,82.40
2019-05-03T13:41:49.189Z,83.50
2019-05-03T13:44:18.575Z,83.30
2019-05-03T13:46:48.008Z,83.60
2019-05-03T13:49:17.462Z,83.70
2019-05-03T13:51:46.936Z,85.30
2019-05-03T13:54:16.255Z,85.20
2019-05-03T13:56:45.651Z,84.70
2019-05-03T13:59:19.760Z,85.60
2019-05-03T14:01:46.128Z,87.20
2019-05-03T14:04:15.497Z,86.90
2019-05-03T14:06:44.920Z,87.90
2019-05-03T14:09:14.317Z,90.00
2019-05-03T14:11:44.818Z,89.50
2019-05-03T14:14:15.191Z,90.00
2019-05-03T14:16:45.156Z,86.90
2019-05-03T14:19:20.774Z,84.70
2019-05-03T14:21:54.657Z,84.20
2019-05-03T14:24:24.638Z,82.90
2019-05-03T14:26:55.144Z,82.90
2019-05-03T14:29:25.365Z,81.90
2019-05-03T14:31:54.981Z,80.50
2019-05-03T14:34:25.749Z,79.90
2019-05-03T14:36:55.655Z,79.70
2019-05-03T14:39:25.486Z,77.90
2019-05-03T14:41:55.503Z,76.60
2019-05-03T14:44:25.376Z,77.00
2019-05-03T14:46:56.642Z,77.10
2019-05-03T14:49:26.254Z,78.60
2019-05-03T14:51:56.729Z,77.80
2019-05-03T14:54:28.825Z,77.80
2019-05-03T14:57:20.144Z,78.20
2019-05-03T15:00:16.869Z,78.90
2019-05-03T15:03:01.305Z,76.40
2019-05-03T15:05:30.629Z,78.10
2019-05-03T15:07:59.968Z,77.40
2019-05-03T15:10:29.343Z,76.80
2019-05-03T15:12:58.767Z,76.20
2019-05-03T15:15:28.908Z,76.00
2019-05-03T15:17:58.662Z,76.10
2019-05-03T15:20:28.006Z,73.90
2019-05-03T15:22:57.455Z,75.10
2019-05-03T15:25:26.809Z,75.50
2019-05-03T15:27:56.203Z,76.80
2019-05-03T15:30:25.698Z,77.90
2019-05-03T15:33:00.379Z,78.30
2019-05-03T15:35:26.209Z,78.20
2019-05-03T15:37:55.857Z,78.30
2019-05-03T15:40:25.364Z,78.30
2019-05-03T15:43:05.374Z,76.50
2019-05-03T15:45:54.511Z,76.00
2019-05-03T15:48:27.101Z,76.90
2019-05-03T15:50:56.475Z,77.10
2019-05-03T15:53:25.911Z,76.10
2019-05-03T15:55:55.350Z,76.10
2019-05-03T15:58:24.961Z,75.30
2019-05-03T16:00:55.431Z,74.30
2019-05-03T16:03:25.451Z,73.30
2019-05-03T16:05:55.710Z,72.30
2019-05-03T16:08:25.569Z,71.30
2019-05-03T16:10:55.171Z,70.60
2019-05-03T16:13:25.240Z,70.40
2019-05-03T16:15:55.373Z,70.30
2019-05-03T16:18:25.161Z,70.00
2019-05-03T16:20:54.787Z,70.20
2019-05-03T16:23:25.051Z,70.90
2019-05-03T16:25:55.033Z,72.70
2019-05-03T16:28:36.706Z,71.80
2019-05-03T16:31:11.919Z,71.50
2019-05-03T16:33:41.287Z,71.80
2019-05-03T16:36:10.730Z,72.30
2019-05-03T16:38:40.164Z,71.80
2019-05-03T16:41:09.527Z,73.10
2019-05-03T16:43:39.018Z,81.00
2019-05-03T16:46:08.485Z,83.70
2019-05-03T16:48:37.887Z,84.20
2019-05-03T16:51:07.271Z,81.70
2019-05-03T16:53:36.621Z,82.20
2019-05-03T16:56:05.979Z,82.80
2019-05-03T16:58:35.503Z,84.10
2019-05-03T17:01:04.971Z,84.50
2019-05-03T17:03:45.646Z,85.50
2019-05-03T17:06:28.939Z,86.00
2019-05-03T17:09:26.142Z,86.40
2019-05-03T17:12:11.092Z,86.30
2019-05-03T17:14:40.543Z,86.40
2019-05-03T17:17:10.109Z,86.80
2019-05-03T17:19:39.539Z,86.80
2019-05-03T17:22:08.916Z,86.80
2019-05-03T17:24:38.263Z,86.80
2019-05-03T17:27:08.055Z,86.50
2019-05-03T17:29:37.411Z,86.80
2019-05-03T17:32:06.781Z,87.50
2019-05-03T17:34:36.108Z,86.90
2019-05-03T17:37:05.664Z,86.80
2019-05-03T17:39:56.768Z,86.80
2019-05-03T17:42:47.927Z,86.60
2019-05-03T17:45:21.163Z,86.90
2019-05-03T17:47:50.577Z,86.70
2019-05-03T17:50:19.975Z,86.20
2019-05-03T17:52:56.333Z,86.10
2019-05-03T17:55:39.221Z,86.30
2019-05-03T17:58:20.002Z,86.70
2019-05-03T18:01:17.298Z,86.80
2019-05-03T18:03:49.150Z,86.60
2019-05-03T18:06:30.475Z,86.10
2019-05-03T18:09:06.551Z,86.00
2019-05-03T18:11:41.412Z,86.00
2019-05-03T18:14:10.843Z,86.10
2019-05-03T18:16:40.259Z,85.40
2019-05-03T18:19:09.799Z,85.50
2019-05-03T18:21:39.240Z,85.80
2019-05-03T18:24:08.590Z,86.00
2019-05-03T18:26:37.983Z,86.10
2019-05-03T18:29:07.475Z,86.60
2019-05-03T18:31:36.946Z,86.70
2019-05-03T18:34:18.574Z,86.80
2019-05-03T18:36:37.527Z,86.70
2019-05-03T18:39:10.473Z,86.80
2019-05-03T18:41:39.857Z,86.70
2019-05-03T18:44:37.198Z,86.70
2019-05-03T18:47:09.682Z,86.60
2019-05-03T18:49:39.103Z,86.60
2019-05-03T18:52:08.465Z,87.00
2019-05-03T18:54:37.795Z,87.60
2019-05-03T18:57:07.187Z,87.80
2019-05-03T18:59:36.591Z,87.90
2019-05-03T19:02:06.043Z,87.80
2019-05-03T19:04:46.529Z,87.60
2019-05-03T19:07:34.868Z,87.80
2019-05-03T19:10:12.927Z,88.00
2019-05-03T19:12:55.283Z,88.20
2019-05-03T19:15:25.216Z,88.20
2019-05-03T19:18:04.548Z,88.70
2019-05-03T19:20:35.263Z,89.30
2019-05-03T19:23:05.077Z,89.30
2019-05-03T19:25:45.891Z,89.60
2019-05-03T19:28:07.959Z,89.50
2019-05-03T19:30:38.566Z,89.40
2019-05-03T19:33:08.032Z,89.40
2019-05-03T19:35:37.442Z,89.50
2019-05-03T19:38:06.881Z,89.40
2019-05-03T19:40:36.237Z,88.60
2019-05-03T19:43:05.604Z,88.10
2019-05-03T19:45:35.400Z,87.90
2019-05-03T19:48:05.339Z,88.40
2019-05-03T19:50:35.724Z,87.70
2019-05-03T19:53:33.078Z,87.80
2019-05-03T19:56:02.558Z,88.30
2019-05-03T19:58:32.022Z,88.90
2019-05-03T20:01:35.371Z,89.60
2019-05-03T20:04:15.421Z,90.10
2019-05-03T20:06:59.801Z,90.40
2019-05-03T20:09:29.363Z,90.50
2019-05-03T20:11:58.828Z,90.60
2019-05-03T20:14:28.303Z,90.50
2019-05-03T20:16:57.662Z,90.50
2019-05-03T20:19:27.135Z,90.60
2019-05-03T20:21:56.837Z,90.60
2019-05-03T20:24:26.516Z,90.70
2019-05-03T20:26:55.945Z,90.80
2019-05-03T20:29:25.420Z,90.90
2019-05-03T20:31:55.270Z,90.90
2019-05-03T20:34:25.075Z,90.90
2019-05-03T20:36:54.926Z,90.90
2019-05-03T20:39:25.438Z,91.00
2019-05-03T20:41:55.323Z,91.00
2019-05-03T20:44:46.544Z,91.00
2019-05-03T20:47:29.924Z,91.00
2019-05-03T20:50:15.551Z,91.00
2019-05-03T20:52:45.307Z,91.00
2019-05-03T20:55:15.533Z,91.00
2019-05-03T20:57:45.691Z,91.10
2019-05-03T21:00:18.811Z,91.10
2019-05-03T21:02:53.378Z,91.30
2019-05-03T21:05:27.789Z,91.40
2019-05-03T21:07:50.494Z,91.50
2019-05-03T21:10:20.282Z,91.70
2019-05-03T21:12:49.710Z,91.60
2019-05-03T21:15:27.689Z,91.60
2019-05-03T21:18:05.301Z,91.60
2019-05-03T21:20:57.682Z,91.60
2019-05-03T21:23:27.936Z,91.50
2019-05-03T21:26:13.502Z,91.50
2019-05-03T21:28:40.248Z,91.40
2019-05-03T21:31:09.695Z,91.30
2019-05-03T21:33:39.030Z,91.10
2019-05-03T21:36:08.433Z,91.40
2019-05-03T21:38:40.584Z,91.50
2019-05-03T21:41:08.855Z,91.60
2019-05-03T21:43:38.184Z,91.80
2019-05-03T21:46:15.258Z,91.70
2019-05-03T21:48:55.872Z,91.70
2019-05-03T21:51:25.296Z,91.80
2019-05-03T21:53:54.641Z,91.80
2019-05-03T21:56:24.949Z,91.70
2019-05-03T21:58:55.321Z,91.70
2019-05-03T22:01:25.905Z,91.80
2019-05-03T22:03:55.742Z,91.80
2019-05-03T22:06:25.207Z,91.80
2019-05-03T22:08:55.400Z,91.80
2019-05-03T22:11:25.315Z,91.90
2019-05-03T22:13:57.270Z,91.90
2019-05-03T22:16:57.753Z,91.70
2019-05-03T22:19:27.237Z,91.70
2019-05-03T22:22:15.543Z,91.70
2019-05-03T22:24:51.624Z,91.70
2019-05-03T22:27:22.185Z,91.70
2019-05-03T22:29:51.525Z,91.70
2019-05-03T22:32:20.915Z,91.80
2019-05-03T22:34:51.191Z,91.90
2019-05-03T22:37:20.618Z,92.10
2019-05-03T22:39:50.063Z,92.10
2019-05-03T22:42:19.481Z,92.10
2019-05-03T22:44:48.941Z,92.20
2019-05-03T22:47:18.343Z,92.10
2019-05-03T22:49:47.823Z,92.00
2019-05-03T22:52:17.286Z,91.90
2019-05-03T22:54:49.672Z,91.90
2019-05-03T22:57:19.071Z,91.90
2019-05-03T22:59:48.508Z,91.90
2019-05-03T23:02:17.873Z,91.80
2019-05-03T23:04:47.340Z,91.80
2019-05-03T23:07:16.728Z,91.90
2019-05-03T23:09:46.107Z,92.00
2019-05-03T23:12:15.581Z,92.10
2019-05-03T23:14:44.937Z,92.20
2019-05-03T23:17:14.963Z,92.30
2019-05-03T23:19:47.570Z,92.30
2019-05-03T23:22:21.694Z,92.30
2019-05-03T23:24:51.171Z,92.30
2019-05-03T23:27:20.592Z,92.30
2019-05-03T23:29:50.050Z,92.30
2019-05-03T23:32:19.499Z,92.30
2019-05-03T23:34:48.916Z,92.30
2019-05-03T23:37:18.308Z,92.30
2019-05-03T23:39:49.269Z,92.40
2019-05-03T23:42:18.647Z,92.30
2019-05-03T23:44:48.068Z,92.20
2019-05-03T23:47:42.403Z,92.10
2019-05-03T23:50:15.738Z,92.00
2019-05-03T23:52:45.279Z,92.20
2019-05-03T23:55:30.630Z,92.30
2019-05-03T23:58:00.012Z,92.30
